Aérodrome :
LOGIN :

S'inscrire | Disclaimer

   EN    FR    IT 

 










Légende :    VFR   VFR Marginal   IFR   IFR Intensif   IFR Très Intensif
Visi : 
Plafond : 
>= 8 km
>= 3000ft
5 à 8 km
1000 à 3000 ft
1500m à 5 km
500 à 1000 ft
800 à 1500m
200 à 500 ft
< 800m
< 200 ft
Symboles :   Orages  Brouillard  Fortes neiges  Fortes précipitations  Vent > 20 kt
SIGMETs :   Divers  Orages  Givrage  Turbulence  Onde Orograph.  Cendres Volcan.







- Altitude de l'aérodrome : 659 ft
- Code IATA : LYN
- Voir les cartes d'approche


LFLY - Lyon Bron

DERNIER METAR :
  • 161430Z AUTO 18009KT 9999 // NSC 20/M05 Q1027

METARs EXPIRÉS :
  • 161400Z AUTO 17014KT 9999 // NSC 19/M01 Q1027
  • 161330Z AUTO 18008KT 9999 // NSC 18/M01 Q1027
  • 161300Z AUTO 18010KT 9999 // NSC 18/00 Q1028
  • 161230Z AUTO 18004KT 120V230 9999 // NSC 17/01 Q1028
  • 161200Z AUTO VRB01KT CAVOK 15/02 Q1028 NOSIG

TAF TAF LFLY
Valide du 16 à 12h jusqu'au 17 à 12h UTC


161100Z 1612/1712 18008KT CAVOK
TEMPO 1620/1707 VRB03KT
ATIS : +33 4 72 15 87 96
Pas de NOTAMs connus pour ce terrain.



MET'MAP, la Météo Aéronautique d'un coup d'oeil ! - Copyright ORBIFLY Décembre 2007 - Disclaimer

ORBIFLY MET'MAP TEAM :

Programmation & Développement : Alexandra Zaïnal
Conception & Développement : Baudouin d'Aumeries
Co-Programmation & Développement : Marc-Olivier Méhu
Soutien technique & logistique : Manuel Goepfert

Contact : metmap@orbifly.com




SOURCES & CREDITS :

   NOAA